Country
Station

 

Weather  for  Berens River Airport  -  Canada    Canada

  
-23 °C (-9 °F)
    
 
 

Current METAR for Berens River Airport is :

CYBV 191400Z 16005KT 140V210 15SM SCT130 BKN170 BKN220 M23/M25 A3018 RMK AC3AC2CS2 SLP253

 

This is a report for Berens River Airport - Canada.
 
The report was made 12 minutes ago, at 14:00 UTC .
The wind was blowing at a speed of 2.6 meters per second (5.8 miles per hour) from south/southeast (160°), varying between southeast (140°) and south/southwest (210°).
 
The temperature was -23 °C (-9 °F), with a dew-point at -25 °C (-13 °F).
The temperature felt like -29 °C (-22 °F).
 
The atmospheric pressure was 1022 hPa (30.18 inHg).
The relative humidity was 83.5%.
 
There were scattered clouds at a height of 3962 meters (13000 feet), broken clouds at a height of 5182 meters (17000 feet) and broken clouds at a height of 6706 meters (22000 feet).
 
The overall visibility was 24.1 kilometers (15.0 miles).
 

 
 
 
 

Country :   A   B   C   D   E   F   G   H   I   J   K   L   M   N   O   P   Q   R   S   T   U   V   W   Y   Z

 

Site Info  |  Disclaimer  |  Credits  |  Privacy
Contact us  |  Add to favorites
© 2013-2019 METARs - All rights reserved